sensor_id;sensor_type;location;lat;lon;timestamp;temperature;humidity
46490;DHT22;32204;49.160;8.580;2023-04-25T00:00:10;9.80;1.00
46490;DHT22;32204;49.160;8.580;2023-04-25T00:02:36;9.90;1.00
46490;DHT22;32204;49.160;8.580;2023-04-25T00:05:02;9.90;1.00
46490;DHT22;32204;49.160;8.580;2023-04-25T00:07:28;9.90;1.00
46490;DHT22;32204;49.160;8.580;2023-04-25T00:09:54;9.90;1.00
46490;DHT22;32204;49.160;8.580;2023-04-25T00:12:20;10.00;1.00
46490;DHT22;32204;49.160;8.580;2023-04-25T00:14:47;9.90;1.00
46490;DHT22;32204;49.160;8.580;2023-04-25T00:17:15;9.90;1.00
46490;DHT22;32204;49.160;8.580;2023-04-25T00:19:42;9.90;1.00
46490;DHT22;32204;49.160;8.580;2023-04-25T00:22:07;10.00;1.00
46490;DHT22;32204;49.160;8.580;2023-04-25T00:24:33;10.10;1.00
46490;DHT22;32204;49.160;8.580;2023-04-25T00:26:58;10.20;1.00
46490;DHT22;32204;49.160;8.580;2023-04-25T00:29:24;10.30;1.00
46490;DHT22;32204;49.160;8.580;2023-04-25T00:31:50;10.30;1.00
46490;DHT22;32204;49.160;8.580;2023-04-25T00:34:15;10.30;1.00
46490;DHT22;32204;49.160;8.580;2023-04-25T00:36:41;10.20;1.00
46490;DHT22;32204;49.160;8.580;2023-04-25T00:39:06;10.20;1.00
46490;DHT22;32204;49.160;8.580;2023-04-25T00:41:32;10.20;1.00
46490;DHT22;32204;49.160;8.580;2023-04-25T00:43:59;10.10;1.00
46490;DHT22;32204;49.160;8.580;2023-04-25T00:46:24;10.10;1.00
46490;DHT22;32204;49.160;8.580;2023-04-25T00:48:50;10.00;1.00
46490;DHT22;32204;49.160;8.580;2023-04-25T00:51:19;10.00;1.00
46490;DHT22;32204;49.160;8.580;2023-04-25T00:53:46;9.90;1.00
46490;DHT22;32204;49.160;8.580;2023-04-25T00:56:13;10.00;1.00
46490;DHT22;32204;49.160;8.580;2023-04-25T00:58:40;10.00;1.00
46490;DHT22;32204;49.160;8.580;2023-04-25T01:01:07;10.10;1.00
46490;DHT22;32204;49.160;8.580;2023-04-25T01:03:33;10.10;1.00
46490;DHT22;32204;49.160;8.580;2023-04-25T01:06:02;10.10;1.00
46490;DHT22;32204;49.160;8.580;2023-04-25T01:08:28;10.20;1.00
46490;DHT22;32204;49.160;8.580;2023-04-25T01:10:53;10.20;1.00
46490;DHT22;32204;49.160;8.580;2023-04-25T01:13:19;10.10;1.00
46490;DHT22;32204;49.160;8.580;2023-04-25T01:15:45;10.20;1.00
46490;DHT22;32204;49.160;8.580;2023-04-25T01:18:11;10.10;1.00
46490;DHT22;32204;49.160;8.580;2023-04-25T01:20:38;10.00;1.00
46490;DHT22;32204;49.160;8.580;2023-04-25T01:23:06;10.00;1.00
46490;DHT22;32204;49.160;8.580;2023-04-25T01:25:31;10.10;1.00
46490;DHT22;32204;49.160;8.580;2023-04-25T01:27:58;10.20;1.00
46490;DHT22;32204;49.160;8.580;2023-04-25T01:30:27;10.10;1.00
46490;DHT22;32204;49.160;8.580;2023-04-25T01:32:55;10.20;1.00
46490;DHT22;32204;49.160;8.580;2023-04-25T01:35:21;10.20;1.00
46490;DHT22;32204;49.160;8.580;2023-04-25T01:37:49;10.10;1.00
46490;DHT22;32204;49.160;8.580;2023-04-25T01:40:15;10.00;1.00
46490;DHT22;32204;49.160;8.580;2023-04-25T01:42:43;10.00;1.00
46490;DHT22;32204;49.160;8.580;2023-04-25T01:45:09;10.00;1.00
46490;DHT22;32204;49.160;8.580;2023-04-25T01:47:36;9.90;1.00
46490;DHT22;32204;49.160;8.580;2023-04-25T01:50:03;9.80;1.00
46490;DHT22;32204;49.160;8.580;2023-04-25T01:52:29;9.80;1.00
46490;DHT22;32204;49.160;8.580;2023-04-25T01:54:57;9.70;1.00
46490;DHT22;32204;49.160;8.580;2023-04-25T01:57:23;9.60;1.00
46490;DHT22;32204;49.160;8.580;2023-04-25T01:59:49;9.60;1.00
46490;DHT22;32204;49.160;8.580;2023-04-25T02:02:15;9.60;1.00
46490;DHT22;32204;49.160;8.580;2023-04-25T02:04:41;9.60;1.00
46490;DHT22;32204;49.160;8.580;2023-04-25T02:07:06;9.60;1.00
46490;DHT22;32204;49.160;8.580;2023-04-25T02:09:32;9.40;1.00
46490;DHT22;32204;49.160;8.580;2023-04-25T02:11:58;9.40;1.00
46490;DHT22;32204;49.160;8.580;2023-04-25T02:14:23;9.40;1.00
46490;DHT22;32204;49.160;8.580;2023-04-25T02:16:49;9.40;1.00
46490;DHT22;32204;49.160;8.580;2023-04-25T02:19:16;9.30;1.00
46490;DHT22;32204;49.160;8.580;2023-04-25T02:21:42;9.40;1.00
46490;DHT22;32204;49.160;8.580;2023-04-25T02:24:08;9.40;1.00
46490;DHT22;32204;49.160;8.580;2023-04-25T02:26:34;9.30;1.00
46490;DHT22;32204;49.160;8.580;2023-04-25T02:28:59;9.20;3.10
46490;DHT22;32204;49.160;8.580;2023-04-25T02:31:26;9.20;23.20
46490;DHT22;32204;49.160;8.580;2023-04-25T02:33:52;9.20;99.90
46490;DHT22;32204;49.160;8.580;2023-04-25T02:36:17;9.20;61.30
46490;DHT22;32204;49.160;8.580;2023-04-25T02:38:43;9.20;81.80
46490;DHT22;32204;49.160;8.580;2023-04-25T02:41:08;9.20;97.90
46490;DHT22;32204;49.160;8.580;2023-04-25T02:43:34;9.10;95.30
46490;DHT22;32204;49.160;8.580;2023-04-25T02:46:00;9.10;84.90
46490;DHT22;32204;49.160;8.580;2023-04-25T02:48:28;9.10;76.40
46490;DHT22;32204;49.160;8.580;2023-04-25T02:50:54;9.10;99.90
46490;DHT22;32204;49.160;8.580;2023-04-25T02:53:20;9.10;99.90
46490;DHT22;32204;49.160;8.580;2023-04-25T02:55:45;9.20;99.90
46490;DHT22;32204;49.160;8.580;2023-04-25T02:58:14;9.20;99.90
46490;DHT22;32204;49.160;8.580;2023-04-25T03:00:40;9.20;99.90
46490;DHT22;32204;49.160;8.580;2023-04-25T03:03:06;9.20;99.90
46490;DHT22;32204;49.160;8.580;2023-04-25T03:05:31;9.20;99.90
46490;DHT22;32204;49.160;8.580;2023-04-25T03:07:57;9.20;99.90
46490;DHT22;32204;49.160;8.580;2023-04-25T03:10:23;9.30;99.90
46490;DHT22;32204;49.160;8.580;2023-04-25T03:12:51;9.30;99.90
46490;DHT22;32204;49.160;8.580;2023-04-25T03:15:19;9.30;99.90
46490;DHT22;32204;49.160;8.580;2023-04-25T03:17:45;9.20;99.90
46490;DHT22;32204;49.160;8.580;2023-04-25T03:20:11;9.20;99.90
46490;DHT22;32204;49.160;8.580;2023-04-25T03:22:37;9.20;99.90
46490;DHT22;32204;49.160;8.580;2023-04-25T03:25:03;9.20;99.90
46490;DHT22;32204;49.160;8.580;2023-04-25T03:27:29;9.20;99.90
46490;DHT22;32204;49.160;8.580;2023-04-25T03:29:55;9.30;99.90
46490;DHT22;32204;49.160;8.580;2023-04-25T03:32:20;9.30;99.90
46490;DHT22;32204;49.160;8.580;2023-04-25T03:34:46;9.40;99.90
46490;DHT22;32204;49.160;8.580;2023-04-25T03:37:11;9.40;99.90
46490;DHT22;32204;49.160;8.580;2023-04-25T03:39:37;9.40;99.90
46490;DHT22;32204;49.160;8.580;2023-04-25T03:42:03;9.50;99.90
46490;DHT22;32204;49.160;8.580;2023-04-25T03:44:29;9.50;99.90
46490;DHT22;32204;49.160;8.580;2023-04-25T03:46:55;9.40;99.90
46490;DHT22;32204;49.160;8.580;2023-04-25T03:49:20;9.40;99.90
46490;DHT22;32204;49.160;8.580;2023-04-25T03:51:46;9.40;99.90
46490;DHT22;32204;49.160;8.580;2023-04-25T03:54:11;9.30;99.90
46490;DHT22;32204;49.160;8.580;2023-04-25T03:56:37;9.20;99.90
46490;DHT22;32204;49.160;8.580;2023-04-25T03:59:03;9.20;99.90
46490;DHT22;32204;49.160;8.580;2023-04-25T04:01:28;9.30;99.90
46490;DHT22;32204;49.160;8.580;2023-04-25T04:03:54;9.20;99.90
46490;DHT22;32204;49.160;8.580;2023-04-25T04:06:20;9.20;99.90
46490;DHT22;32204;49.160;8.580;2023-04-25T04:08:46;9.30;99.90
46490;DHT22;32204;49.160;8.580;2023-04-25T04:11:12;9.30;99.90
46490;DHT22;32204;49.160;8.580;2023-04-25T04:13:37;9.30;99.90
46490;DHT22;32204;49.160;8.580;2023-04-25T04:16:03;9.40;99.90
46490;DHT22;32204;49.160;8.580;2023-04-25T04:18:30;9.50;99.90
46490;DHT22;32204;49.160;8.580;2023-04-25T04:20:55;9.50;99.90
46490;DHT22;32204;49.160;8.580;2023-04-25T04:23:23;9.50;99.40
46490;DHT22;32204;49.160;8.580;2023-04-25T04:25:49;9.60;61.70
46490;DHT22;32204;49.160;8.580;2023-04-25T04:28:15;9.50;53.10
46490;DHT22;32204;49.160;8.580;2023-04-25T04:30:41;9.60;32.50
46490;DHT22;32204;49.160;8.580;2023-04-25T04:33:08;9.50;22.00
46490;DHT22;32204;49.160;8.580;2023-04-25T04:35:34;9.60;39.40
46490;DHT22;32204;49.160;8.580;2023-04-25T04:38:00;9.50;30.40
46490;DHT22;32204;49.160;8.580;2023-04-25T04:40:25;9.60;92.20
46490;DHT22;32204;49.160;8.580;2023-04-25T04:42:51;9.60;58.60
46490;DHT22;32204;49.160;8.580;2023-04-25T04:45:18;9.70;25.20
46490;DHT22;32204;49.160;8.580;2023-04-25T04:47:44;9.80;43.20
46490;DHT22;32204;49.160;8.580;2023-04-25T04:50:10;9.80;1.00
46490;DHT22;32204;49.160;8.580;2023-04-25T04:52:37;9.80;20.00
46490;DHT22;32204;49.160;8.580;2023-04-25T04:55:03;9.90;18.10
46490;DHT22;32204;49.160;8.580;2023-04-25T04:57:29;9.90;1.00
46490;DHT22;32204;49.160;8.580;2023-04-25T04:59:56;9.90;1.00
46490;DHT22;32204;49.160;8.580;2023-04-25T05:02:22;9.90;1.00
46490;DHT22;32204;49.160;8.580;2023-04-25T05:04:47;9.90;1.00
46490;DHT22;32204;49.160;8.580;2023-04-25T05:07:13;9.90;1.00
46490;DHT22;32204;49.160;8.580;2023-04-25T05:09:39;9.80;1.00
46490;DHT22;32204;49.160;8.580;2023-04-25T05:12:05;9.80;1.00
46490;DHT22;32204;49.160;8.580;2023-04-25T05:14:30;9.90;1.00
46490;DHT22;32204;49.160;8.580;2023-04-25T05:16:56;9.90;1.00
46490;DHT22;32204;49.160;8.580;2023-04-25T05:19:22;9.90;1.00
46490;DHT22;32204;49.160;8.580;2023-04-25T05:21:48;10.00;1.00
46490;DHT22;32204;49.160;8.580;2023-04-25T05:24:14;10.00;1.00
46490;DHT22;32204;49.160;8.580;2023-04-25T05:26:40;10.00;1.00
46490;DHT22;32204;49.160;8.580;2023-04-25T05:29:05;10.00;1.00
46490;DHT22;32204;49.160;8.580;2023-04-25T05:31:32;9.90;1.00
46490;DHT22;32204;49.160;8.580;2023-04-25T05:33:57;10.00;1.00
46490;DHT22;32204;49.160;8.580;2023-04-25T05:36:23;10.00;1.00
46490;DHT22;32204;49.160;8.580;2023-04-25T05:38:49;10.00;1.00
46490;DHT22;32204;49.160;8.580;2023-04-25T05:41:14;10.00;1.00
46490;DHT22;32204;49.160;8.580;2023-04-25T05:43:40;10.00;1.00
46490;DHT22;32204;49.160;8.580;2023-04-25T05:46:10;10.10;1.00
46490;DHT22;32204;49.160;8.580;2023-04-25T05:48:37;10.20;1.00
46490;DHT22;32204;49.160;8.580;2023-04-25T05:51:02;10.20;1.00
46490;DHT22;32204;49.160;8.580;2023-04-25T05:53:28;10.20;1.00
46490;DHT22;32204;49.160;8.580;2023-04-25T05:55:53;10.30;1.00
46490;DHT22;32204;49.160;8.580;2023-04-25T05:58:19;10.30;99.90
46490;DHT22;32204;49.160;8.580;2023-04-25T06:00:45;10.20;99.90
46490;DHT22;32204;49.160;8.580;2023-04-25T06:03:11;10.20;1.00
46490;DHT22;32204;49.160;8.580;2023-04-25T06:05:41;10.20;1.00
46490;DHT22;32204;49.160;8.580;2023-04-25T06:08:07;10.20;1.00
46490;DHT22;32204;49.160;8.580;2023-04-25T06:10:33;10.30;1.00
46490;DHT22;32204;49.160;8.580;2023-04-25T06:12:58;10.50;1.00
46490;DHT22;32204;49.160;8.580;2023-04-25T06:15:24;10.40;99.90
46490;DHT22;32204;49.160;8.580;2023-04-25T06:17:50;10.50;99.90
46490;DHT22;32204;49.160;8.580;2023-04-25T06:20:16;10.60;99.90
46490;DHT22;32204;49.160;8.580;2023-04-25T06:22:41;10.90;99.90
46490;DHT22;32204;49.160;8.580;2023-04-25T06:25:07;11.00;99.90
46490;DHT22;32204;49.160;8.580;2023-04-25T06:27:34;11.20;99.90
46490;DHT22;32204;49.160;8.580;2023-04-25T06:29:59;11.50;99.90
46490;DHT22;32204;49.160;8.580;2023-04-25T06:32:25;11.50;67.30
46490;DHT22;32204;49.160;8.580;2023-04-25T06:34:53;11.30;1.00
46490;DHT22;32204;49.160;8.580;2023-04-25T06:37:18;10.90;18.30
46490;DHT22;32204;49.160;8.580;2023-04-25T06:39:44;10.90;99.90
46490;DHT22;32204;49.160;8.580;2023-04-25T06:42:10;10.90;99.90
46490;DHT22;32204;49.160;8.580;2023-04-25T06:44:37;10.80;99.90
46490;DHT22;32204;49.160;8.580;2023-04-25T06:47:02;10.60;99.90
46490;DHT22;32204;49.160;8.580;2023-04-25T06:49:28;10.40;99.90
46490;DHT22;32204;49.160;8.580;2023-04-25T06:51:54;10.40;1.00
46490;DHT22;32204;49.160;8.580;2023-04-25T06:54:19;10.40;1.00
46490;DHT22;32204;49.160;8.580;2023-04-25T06:56:45;10.50;1.00
46490;DHT22;32204;49.160;8.580;2023-04-25T06:59:11;10.50;1.00
46490;DHT22;32204;49.160;8.580;2023-04-25T07:01:37;10.60;1.00
46490;DHT22;32204;49.160;8.580;2023-04-25T07:04:03;10.60;1.00
46490;DHT22;32204;49.160;8.580;2023-04-25T07:06:28;10.70;1.00
46490;DHT22;32204;49.160;8.580;2023-04-25T07:08:54;10.60;99.90
46490;DHT22;32204;49.160;8.580;2023-04-25T07:11:25;10.60;99.90
46490;DHT22;32204;49.160;8.580;2023-04-25T07:13:51;10.80;1.00
46490;DHT22;32204;49.160;8.580;2023-04-25T07:16:16;10.80;99.90
46490;DHT22;32204;49.160;8.580;2023-04-25T07:18:42;10.90;99.90
46490;DHT22;32204;49.160;8.580;2023-04-25T07:21:07;11.10;99.90
46490;DHT22;32204;49.160;8.580;2023-04-25T07:23:33;11.20;99.90
46490;DHT22;32204;49.160;8.580;2023-04-25T07:25:59;11.20;99.90
46490;DHT22;32204;49.160;8.580;2023-04-25T07:28:24;11.10;99.90
46490;DHT22;32204;49.160;8.580;2023-04-25T07:30:50;11.00;99.90
46490;DHT22;32204;49.160;8.580;2023-04-25T07:33:16;11.00;99.90
46490;DHT22;32204;49.160;8.580;2023-04-25T07:35:41;11.10;99.90
46490;DHT22;32204;49.160;8.580;2023-04-25T07:38:07;11.00;22.30
46490;DHT22;32204;49.160;8.580;2023-04-25T07:40:33;11.00;99.90
46490;DHT22;32204;49.160;8.580;2023-04-25T07:42:59;10.90;99.90
46490;DHT22;32204;49.160;8.580;2023-04-25T07:45:26;11.00;99.90
46490;DHT22;32204;49.160;8.580;2023-04-25T07:47:51;11.00;99.90
46490;DHT22;32204;49.160;8.580;2023-04-25T07:50:17;11.10;99.90
46490;DHT22;32204;49.160;8.580;2023-04-25T07:52:42;11.10;63.30
46490;DHT22;32204;49.160;8.580;2023-04-25T07:55:08;11.10;99.90
46490;DHT22;32204;49.160;8.580;2023-04-25T07:57:34;10.90;99.90
46490;DHT22;32204;49.160;8.580;2023-04-25T08:00:00;10.90;99.90
46490;DHT22;32204;49.160;8.580;2023-04-25T08:02:25;10.80;99.90
46490;DHT22;32204;49.160;8.580;2023-04-25T08:04:53;10.70;99.90
46490;DHT22;32204;49.160;8.580;2023-04-25T08:07:19;10.80;99.90
46490;DHT22;32204;49.160;8.580;2023-04-25T08:09:44;10.70;99.90
46490;DHT22;32204;49.160;8.580;2023-04-25T08:12:10;10.60;99.90
46490;DHT22;32204;49.160;8.580;2023-04-25T08:14:36;10.50;1.00
46490;DHT22;32204;49.160;8.580;2023-04-25T08:17:03;10.50;99.90
46490;DHT22;32204;49.160;8.580;2023-04-25T08:19:29;10.50;99.90
46490;DHT22;32204;49.160;8.580;2023-04-25T08:21:56;10.50;99.90
46490;DHT22;32204;49.160;8.580;2023-04-25T08:24:22;10.40;99.90
46490;DHT22;32204;49.160;8.580;2023-04-25T08:26:48;10.00;1.00
46490;DHT22;32204;49.160;8.580;2023-04-25T08:29:13;9.70;1.00
46490;DHT22;32204;49.160;8.580;2023-04-25T08:31:39;9.60;16.20
46490;DHT22;32204;49.160;8.580;2023-04-25T08:34:05;9.60;99.90
46490;DHT22;32204;49.160;8.580;2023-04-25T08:36:31;9.70;99.90
46490;DHT22;32204;49.160;8.580;2023-04-25T08:38:57;9.70;99.90
46490;DHT22;32204;49.160;8.580;2023-04-25T08:41:23;9.60;99.90
46490;DHT22;32204;49.160;8.580;2023-04-25T08:43:49;9.60;99.90
46490;DHT22;32204;49.160;8.580;2023-04-25T08:46:17;9.40;99.90
46490;DHT22;32204;49.160;8.580;2023-04-25T08:48:45;9.50;99.90
46490;DHT22;32204;49.160;8.580;2023-04-25T08:51:21;9.50;99.90
46490;DHT22;32204;49.160;8.580;2023-04-25T08:53:51;9.60;99.90
46490;DHT22;32204;49.160;8.580;2023-04-25T08:56:22;9.80;99.90
46490;DHT22;32204;49.160;8.580;2023-04-25T08:58:51;9.90;99.90
46490;DHT22;32204;49.160;8.580;2023-04-25T09:01:17;10.00;99.90
46490;DHT22;32204;49.160;8.580;2023-04-25T09:03:44;10.00;74.10
46490;DHT22;32204;49.160;8.580;2023-04-25T09:06:13;10.10;51.20
46490;DHT22;32204;49.160;8.580;2023-04-25T09:08:39;10.20;1.00
46490;DHT22;32204;49.160;8.580;2023-04-25T09:11:06;10.40;22.00
46490;DHT22;32204;49.160;8.580;2023-04-25T09:13:32;10.60;53.70
46490;DHT22;32204;49.160;8.580;2023-04-25T09:15:58;10.60;1.00
46490;DHT22;32204;49.160;8.580;2023-04-25T09:18:24;10.70;1.00
46490;DHT22;32204;49.160;8.580;2023-04-25T09:20:52;10.40;99.90
46490;DHT22;32204;49.160;8.580;2023-04-25T09:23:19;10.50;99.90
46490;DHT22;32204;49.160;8.580;2023-04-25T09:25:51;10.40;99.90
46490;DHT22;32204;49.160;8.580;2023-04-25T09:28:24;10.60;99.90
46490;DHT22;32204;49.160;8.580;2023-04-25T09:30:56;10.70;99.90
46490;DHT22;32204;49.160;8.580;2023-04-25T09:33:32;10.80;1.00
46490;DHT22;32204;49.160;8.580;2023-04-25T09:36:06;11.00;99.90
46490;DHT22;32204;49.160;8.580;2023-04-25T09:38:45;11.20;1.00
46490;DHT22;32204;49.160;8.580;2023-04-25T09:41:12;11.30;97.20
46490;DHT22;32204;49.160;8.580;2023-04-25T09:43:39;11.50;1.00
46490;DHT22;32204;49.160;8.580;2023-04-25T09:46:09;11.40;99.90
46490;DHT22;32204;49.160;8.580;2023-04-25T09:48:36;11.40;1.00
46490;DHT22;32204;49.160;8.580;2023-04-25T09:51:09;11.30;99.90
46490;DHT22;32204;49.160;8.580;2023-04-25T09:53:39;11.30;99.90
46490;DHT22;32204;49.160;8.580;2023-04-25T09:56:10;11.40;1.00
46490;DHT22;32204;49.160;8.580;2023-04-25T09:58:38;11.60;1.00
46490;DHT22;32204;49.160;8.580;2023-04-25T10:01:05;11.50;99.90
46490;DHT22;32204;49.160;8.580;2023-04-25T10:03:33;11.60;99.90
46490;DHT22;32204;49.160;8.580;2023-04-25T10:06:01;11.70;99.90
46490;DHT22;32204;49.160;8.580;2023-04-25T10:08:37;11.80;99.90
46490;DHT22;32204;49.160;8.580;2023-04-25T10:11:04;11.90;1.00
46490;DHT22;32204;49.160;8.580;2023-04-25T10:13:31;12.10;99.90
46490;DHT22;32204;49.160;8.580;2023-04-25T10:16:02;12.10;1.00
46490;DHT22;32204;49.160;8.580;2023-04-25T10:18:29;12.00;1.00
46490;DHT22;32204;49.160;8.580;2023-04-25T10:20:57;11.80;1.00
46490;DHT22;32204;49.160;8.580;2023-04-25T10:23:24;11.50;1.00
46490;DHT22;32204;49.160;8.580;2023-04-25T10:25:53;11.40;99.90
46490;DHT22;32204;49.160;8.580;2023-04-25T10:28:20;11.30;99.90
46490;DHT22;32204;49.160;8.580;2023-04-25T10:31:01;11.10;1.00
46490;DHT22;32204;49.160;8.580;2023-04-25T10:33:39;11.20;99.90
46490;DHT22;32204;49.160;8.580;2023-04-25T10:38:36;11.30;1.00
46490;DHT22;32204;49.160;8.580;2023-04-25T10:41:04;11.40;97.30
46490;DHT22;32204;49.160;8.580;2023-04-25T10:43:40;11.50;1.00
46490;DHT22;32204;49.160;8.580;2023-04-25T10:46:26;11.60;1.00
46490;DHT22;32204;49.160;8.580;2023-04-25T10:48:57;11.50;99.90
46490;DHT22;32204;49.160;8.580;2023-04-25T10:51:28;11.50;1.00
46490;DHT22;32204;49.160;8.580;2023-04-25T10:53:59;11.40;1.00
46490;DHT22;32204;49.160;8.580;2023-04-25T10:56:27;11.40;99.90
46490;DHT22;32204;49.160;8.580;2023-04-25T10:59:10;11.50;1.00
46490;DHT22;32204;49.160;8.580;2023-04-25T11:01:39;11.70;99.90
46490;DHT22;32204;49.160;8.580;2023-04-25T11:04:06;11.70;99.90
46490;DHT22;32204;49.160;8.580;2023-04-25T11:07:44;11.70;99.90
46490;DHT22;32204;49.160;8.580;2023-04-25T11:09:41;11.70;1.00
46490;DHT22;32204;49.160;8.580;2023-04-25T11:12:09;11.80;99.90
46490;DHT22;32204;49.160;8.580;2023-04-25T11:14:37;11.70;99.90
46490;DHT22;32204;49.160;8.580;2023-04-25T11:17:02;11.60;99.90
46490;DHT22;32204;49.160;8.580;2023-04-25T11:19:29;11.60;1.00
46490;DHT22;32204;49.160;8.580;2023-04-25T11:21:59;11.60;1.00
46490;DHT22;32204;49.160;8.580;2023-04-25T11:24:35;11.50;1.00
46490;DHT22;32204;49.160;8.580;2023-04-25T11:27:02;11.40;99.90
46490;DHT22;32204;49.160;8.580;2023-04-25T11:29:31;11.50;1.00
46490;DHT22;32204;49.160;8.580;2023-04-25T11:31:57;11.60;1.00
46490;DHT22;32204;49.160;8.580;2023-04-25T11:34:24;11.60;99.90
46490;DHT22;32204;49.160;8.580;2023-04-25T11:36:50;11.40;1.00
46490;DHT22;32204;49.160;8.580;2023-04-25T11:39:21;11.30;1.00
46490;DHT22;32204;49.160;8.580;2023-04-25T11:41:47;11.40;1.00
46490;DHT22;32204;49.160;8.580;2023-04-25T11:44:16;11.30;1.00
46490;DHT22;32204;49.160;8.580;2023-04-25T11:46:42;11.20;13.60
46490;DHT22;32204;49.160;8.580;2023-04-25T11:49:08;11.20;1.00
46490;DHT22;32204;49.160;8.580;2023-04-25T11:51:41;11.20;53.80
46490;DHT22;32204;49.160;8.580;2023-04-25T11:54:07;11.40;99.90
46490;DHT22;32204;49.160;8.580;2023-04-25T11:56:33;11.70;97.10
46490;DHT22;32204;49.160;8.580;2023-04-25T11:59:00;11.70;1.00
46490;DHT22;32204;49.160;8.580;2023-04-25T12:01:34;11.70;93.70
46490;DHT22;32204;49.160;8.580;2023-04-25T12:06:42;11.60;55.00
46490;DHT22;32204;49.160;8.580;2023-04-25T12:09:10;11.60;44.40
46490;DHT22;32204;49.160;8.580;2023-04-25T12:11:43;11.70;99.90
46490;DHT22;32204;49.160;8.580;2023-04-25T12:14:09;11.80;49.90
46490;DHT22;32204;49.160;8.580;2023-04-25T12:16:46;12.10;32.90
46490;DHT22;32204;49.160;8.580;2023-04-25T12:19:16;12.30;1.00
46490;DHT22;32204;49.160;8.580;2023-04-25T12:21:42;12.50;46.50
46490;DHT22;32204;49.160;8.580;2023-04-25T12:24:20;12.50;1.00
46490;DHT22;32204;49.160;8.580;2023-04-25T12:31:45;12.60;99.90
46490;DHT22;32204;49.160;8.580;2023-04-25T12:34:12;12.60;99.90
46490;DHT22;32204;49.160;8.580;2023-04-25T12:36:37;12.60;99.90
46490;DHT22;32204;49.160;8.580;2023-04-25T12:39:04;12.50;1.00
46490;DHT22;32204;49.160;8.580;2023-04-25T12:41:30;12.40;1.00
46490;DHT22;32204;49.160;8.580;2023-04-25T12:43:56;12.20;99.90
46490;DHT22;32204;49.160;8.580;2023-04-25T12:46:21;12.00;1.00
46490;DHT22;32204;49.160;8.580;2023-04-25T12:48:48;11.80;99.90
46490;DHT22;32204;49.160;8.580;2023-04-25T12:51:14;11.60;1.00
46490;DHT22;32204;49.160;8.580;2023-04-25T12:53:40;11.50;99.90
46490;DHT22;32204;49.160;8.580;2023-04-25T12:56:07;11.50;99.90
46490;DHT22;32204;49.160;8.580;2023-04-25T12:58:33;11.50;99.90
46490;DHT22;32204;49.160;8.580;2023-04-25T13:00:59;11.60;99.90
46490;DHT22;32204;49.160;8.580;2023-04-25T13:03:25;11.80;99.90
46490;DHT22;32204;49.160;8.580;2023-04-25T13:05:51;11.80;1.00
46490;DHT22;32204;49.160;8.580;2023-04-25T13:08:18;12.00;1.00
46490;DHT22;32204;49.160;8.580;2023-04-25T13:10:44;12.20;1.00
46490;DHT22;32204;49.160;8.580;2023-04-25T13:13:10;12.40;99.90
46490;DHT22;32204;49.160;8.580;2023-04-25T13:15:35;12.50;52.80
46490;DHT22;32204;49.160;8.580;2023-04-25T13:18:03;12.60;99.90
46490;DHT22;32204;49.160;8.580;2023-04-25T13:20:28;12.50;1.00
46490;DHT22;32204;49.160;8.580;2023-04-25T13:22:54;12.50;99.90
46490;DHT22;32204;49.160;8.580;2023-04-25T13:25:20;12.60;99.90
46490;DHT22;32204;49.160;8.580;2023-04-25T13:27:47;12.40;31.00
46490;DHT22;32204;49.160;8.580;2023-04-25T13:30:13;12.30;99.90
46490;DHT22;32204;49.160;8.580;2023-04-25T13:32:39;12.30;99.90
46490;DHT22;32204;49.160;8.580;2023-04-25T13:35:11;12.30;92.00
46490;DHT22;32204;49.160;8.580;2023-04-25T13:37:38;12.50;99.90
46490;DHT22;32204;49.160;8.580;2023-04-25T13:40:05;12.60;99.90
46490;DHT22;32204;49.160;8.580;2023-04-25T13:42:33;12.70;1.00
46490;DHT22;32204;49.160;8.580;2023-04-25T13:44:58;12.60;99.90
46490;DHT22;32204;49.160;8.580;2023-04-25T13:47:26;12.80;1.00
46490;DHT22;32204;49.160;8.580;2023-04-25T13:49:52;12.90;99.90
46490;DHT22;32204;49.160;8.580;2023-04-25T13:52:18;12.90;99.90
46490;DHT22;32204;49.160;8.580;2023-04-25T13:54:44;12.80;99.90
46490;DHT22;32204;49.160;8.580;2023-04-25T13:57:10;12.90;99.90
46490;DHT22;32204;49.160;8.580;2023-04-25T13:59:36;12.90;1.00
46490;DHT22;32204;49.160;8.580;2023-04-25T14:02:02;12.60;1.00
46490;DHT22;32204;49.160;8.580;2023-04-25T14:04:28;12.60;77.20
46490;DHT22;32204;49.160;8.580;2023-04-25T14:06:53;12.60;1.00
46490;DHT22;32204;49.160;8.580;2023-04-25T14:09:20;12.80;99.90
46490;DHT22;32204;49.160;8.580;2023-04-25T14:11:51;12.70;62.60
46490;DHT22;32204;49.160;8.580;2023-04-25T14:14:18;12.90;1.00
46490;DHT22;32204;49.160;8.580;2023-04-25T14:16:43;13.10;96.00
46490;DHT22;32204;49.160;8.580;2023-04-25T14:19:09;13.10;1.00
46490;DHT22;32204;49.160;8.580;2023-04-25T14:21:35;13.20;99.90
46490;DHT22;32204;49.160;8.580;2023-04-25T14:24:00;13.10;1.00
46490;DHT22;32204;49.160;8.580;2023-04-25T14:26:26;13.20;1.00
46490;DHT22;32204;49.160;8.580;2023-04-25T14:28:52;13.20;1.00
46490;DHT22;32204;49.160;8.580;2023-04-25T14:31:17;13.00;99.90
46490;DHT22;32204;49.160;8.580;2023-04-25T14:33:43;12.90;99.90
46490;DHT22;32204;49.160;8.580;2023-04-25T14:36:09;12.80;99.90
46490;DHT22;32204;49.160;8.580;2023-04-25T14:38:36;12.80;99.90
46490;DHT22;32204;49.160;8.580;2023-04-25T14:41:02;13.00;99.90
46490;DHT22;32204;49.160;8.580;2023-04-25T14:43:27;13.10;16.30
46490;DHT22;32204;49.160;8.580;2023-04-25T14:45:53;13.10;99.90
46490;DHT22;32204;49.160;8.580;2023-04-25T14:48:19;13.00;99.90
46490;DHT22;32204;49.160;8.580;2023-04-25T14:50:45;12.80;99.90
46490;DHT22;32204;49.160;8.580;2023-04-25T14:53:11;12.70;99.90
46490;DHT22;32204;49.160;8.580;2023-04-25T14:55:37;12.60;99.90
46490;DHT22;32204;49.160;8.580;2023-04-25T14:58:03;12.60;99.90
46490;DHT22;32204;49.160;8.580;2023-04-25T15:00:29;12.80;99.90
46490;DHT22;32204;49.160;8.580;2023-04-25T15:02:56;12.80;99.90
46490;DHT22;32204;49.160;8.580;2023-04-25T15:05:22;12.90;99.90
46490;DHT22;32204;49.160;8.580;2023-04-25T15:07:48;12.90;99.90
46490;DHT22;32204;49.160;8.580;2023-04-25T15:10:13;12.80;99.90
46490;DHT22;32204;49.160;8.580;2023-04-25T15:12:44;12.80;96.70
46490;DHT22;32204;49.160;8.580;2023-04-25T15:15:10;12.70;99.90
46490;DHT22;32204;49.160;8.580;2023-04-25T15:17:37;12.70;1.00
46490;DHT22;32204;49.160;8.580;2023-04-25T15:20:04;12.50;99.90
46490;DHT22;32204;49.160;8.580;2023-04-25T15:22:30;12.50;1.00
46490;DHT22;32204;49.160;8.580;2023-04-25T15:24:56;12.30;99.90
46490;DHT22;32204;49.160;8.580;2023-04-25T15:27:22;12.30;1.00
46490;DHT22;32204;49.160;8.580;2023-04-25T15:29:48;12.20;99.90
46490;DHT22;32204;49.160;8.580;2023-04-25T15:32:14;12.20;1.00
46490;DHT22;32204;49.160;8.580;2023-04-25T15:34:39;12.20;99.90
46490;DHT22;32204;49.160;8.580;2023-04-25T15:37:05;12.30;99.90
46490;DHT22;32204;49.160;8.580;2023-04-25T15:39:31;12.40;99.90
46490;DHT22;32204;49.160;8.580;2023-04-25T15:41:57;12.40;1.00
46490;DHT22;32204;49.160;8.580;2023-04-25T15:44:24;12.20;24.20
46490;DHT22;32204;49.160;8.580;2023-04-25T15:46:49;12.10;99.90
46490;DHT22;32204;49.160;8.580;2023-04-25T15:49:15;12.00;99.90